createdAt,value
2019-05-03T00:02:47.794Z,18.50
2019-05-03T00:05:26.712Z,19.00
2019-05-03T00:08:06.424Z,19.53
2019-05-03T00:10:37.118Z,18.97
2019-05-03T00:13:07.913Z,23.30
2019-05-03T00:15:55.801Z,19.93
2019-05-03T00:18:25.361Z,18.07
2019-05-03T00:20:55.219Z,16.93
2019-05-03T00:23:24.700Z,20.70
2019-05-03T00:25:54.188Z,19.50
2019-05-03T00:28:23.703Z,20.10
2019-05-03T00:30:53.197Z,19.10
2019-05-03T00:33:22.691Z,21.57
2019-05-03T00:36:22.337Z,20.10
2019-05-03T00:38:54.007Z,21.30
2019-05-03T00:41:24.026Z,20.30
2019-05-03T00:43:53.568Z,20.17
2019-05-03T00:46:23.070Z,22.37
2019-05-03T00:48:52.636Z,18.17
2019-05-03T00:51:22.576Z,17.10
2019-05-03T00:53:53.163Z,22.30
2019-05-03T00:56:22.721Z,18.90
2019-05-03T00:58:58.560Z,20.47
2019-05-03T01:01:28.069Z,19.70
2019-05-03T01:03:57.683Z,19.93
2019-05-03T01:06:27.158Z,19.03
2019-05-03T01:08:56.659Z,19.03
2019-05-03T01:11:26.507Z,20.37
2019-05-03T01:13:55.965Z,20.43
2019-05-03T01:16:26.429Z,20.53
2019-05-03T01:18:55.921Z,19.93
2019-05-03T01:21:25.380Z,17.70
2019-05-03T01:23:54.921Z,19.73
2019-05-03T01:26:24.541Z,19.37
2019-05-03T01:28:54.017Z,27.63
2019-05-03T01:31:23.649Z,19.60
2019-05-03T01:33:53.261Z,18.63
2019-05-03T01:36:23.507Z,18.60
2019-05-03T01:38:53.272Z,19.97
2019-05-03T01:41:23.492Z,17.90
2019-05-03T01:43:53.102Z,21.30
2019-05-03T01:46:23.007Z,21.50
2019-05-03T01:49:05.045Z,15.27
2019-05-03T01:51:52.639Z,20.93
2019-05-03T01:54:22.872Z,24.37
2019-05-03T01:56:58.793Z,18.07
2019-05-03T01:59:23.633Z,20.10
2019-05-03T02:02:24.042Z,18.43
2019-05-03T02:05:15.757Z,31.83
2019-05-03T02:07:45.262Z,18.90
2019-05-03T02:10:15.025Z,19.83
2019-05-03T02:12:44.535Z,17.13
2019-05-03T02:15:14.406Z,25.07
2019-05-03T02:17:43.896Z,23.97
2019-05-03T02:20:13.483Z,22.60
2019-05-03T02:22:43.061Z,20.83
2019-05-03T02:25:12.605Z,20.53
2019-05-03T02:27:42.385Z,20.90
2019-05-03T02:30:14.267Z,19.63
2019-05-03T02:32:44.070Z,18.13
2019-05-03T02:35:14.254Z,21.67
2019-05-03T02:37:45.765Z,21.23
2019-05-03T02:40:16.319Z,21.03
2019-05-03T02:43:06.072Z,18.73
2019-05-03T02:45:39.451Z,21.40
2019-05-03T02:48:16.793Z,19.80
2019-05-03T02:50:46.487Z,21.40
2019-05-03T02:53:19.483Z,18.63
2019-05-03T02:55:49.361Z,19.50
2019-05-03T02:58:19.196Z,21.03
2019-05-03T03:01:00.104Z,21.20
2019-05-03T03:03:31.882Z,23.80
2019-05-03T03:06:02.853Z,20.60
2019-05-03T03:08:36.712Z,21.60
2019-05-03T03:11:08.668Z,20.10
2019-05-03T03:13:39.749Z,21.70
2019-05-03T03:16:11.485Z,24.27
2019-05-03T03:18:45.354Z,24.63
2019-05-03T03:21:17.541Z,21.47
2019-05-03T03:24:05.765Z,23.17
2019-05-03T03:26:39.274Z,23.70
2019-05-03T03:29:07.354Z,22.53
2019-05-03T03:31:57.374Z,24.23
2019-05-03T03:34:28.264Z,25.83
2019-05-03T03:37:04.339Z,23.97
2019-05-03T03:39:29.657Z,24.13
2019-05-03T03:41:59.732Z,25.63
2019-05-03T03:44:29.405Z,24.80
2019-05-03T03:47:00.212Z,25.67
2019-05-03T03:49:32.397Z,22.67
2019-05-03T03:52:06.081Z,26.83
2019-05-03T03:54:37.784Z,28.77
2019-05-03T03:57:08.502Z,27.63
2019-05-03T03:59:37.955Z,27.13
2019-05-03T04:02:07.527Z,25.47
2019-05-03T04:04:37.325Z,27.67
2019-05-03T04:07:07.086Z,28.43
2019-05-03T04:09:36.907Z,26.83
2019-05-03T04:12:06.721Z,30.97
2019-05-03T04:14:47.114Z,37.07
2019-05-03T04:17:39.307Z,32.33
2019-05-03T04:20:09.266Z,30.27
2019-05-03T04:22:39.256Z,35.60
2019-05-03T04:25:08.854Z,41.93
2019-05-03T04:27:38.407Z,45.53
2019-05-03T04:30:07.907Z,53.40
2019-05-03T04:32:37.626Z,56.33
2019-05-03T04:35:07.062Z,59.70
2019-05-03T04:37:36.518Z,62.10
2019-05-03T04:40:06.711Z,59.60
2019-05-03T04:42:36.191Z,58.43
2019-05-03T04:45:06.143Z,57.83
2019-05-03T04:47:35.838Z,55.10
2019-05-03T04:50:05.839Z,49.13
2019-05-03T04:52:36.198Z,55.47
2019-05-03T04:55:06.566Z,52.43
2019-05-03T04:57:42.167Z,54.50
2019-05-03T05:00:11.255Z,48.63
2019-05-03T05:02:39.661Z,44.77
2019-05-03T05:05:09.462Z,36.93
2019-05-03T05:07:38.977Z,42.37
2019-05-03T05:10:08.941Z,40.00
2019-05-03T05:12:38.449Z,36.00
2019-05-03T05:15:08.189Z,29.63
2019-05-03T05:18:05.935Z,27.70
2019-05-03T05:20:41.512Z,26.03
2019-05-03T05:23:10.968Z,25.53
2019-05-03T05:25:45.311Z,24.77
2019-05-03T05:28:20.698Z,19.47
2019-05-03T05:30:50.416Z,26.47
2019-05-03T05:33:22.760Z,22.10
2019-05-03T05:35:54.525Z,18.17
2019-05-03T05:38:25.604Z,14.57
2019-05-03T05:40:55.571Z,13.70
2019-05-03T05:43:25.646Z,14.73
2019-05-03T05:45:58.651Z,17.63
2019-05-03T05:48:51.663Z,14.93
2019-05-03T05:51:21.236Z,12.30
2019-05-03T05:53:50.713Z,10.37
2019-05-03T05:56:35.758Z,10.93
2019-05-03T05:59:15.203Z,8.77
2019-05-03T06:01:55.539Z,8.10
2019-05-03T06:04:25.268Z,8.07
2019-05-03T06:07:16.970Z,8.40
2019-05-03T06:10:09.878Z,5.07
2019-05-03T06:12:50.242Z,9.60
2019-05-03T06:15:42.077Z,5.30
2019-05-03T06:18:17.316Z,8.40
2019-05-03T06:20:54.364Z,7.70
2019-05-03T06:23:31.144Z,7.27
2019-05-03T06:26:00.717Z,5.47
2019-05-03T06:28:35.099Z,7.07
2019-05-03T06:31:22.700Z,8.30
2019-05-03T06:33:52.527Z,10.70
2019-05-03T06:36:22.070Z,15.13
2019-05-03T06:38:51.581Z,18.07
2019-05-03T06:41:21.065Z,18.07
2019-05-03T06:43:50.495Z,15.17
2019-05-03T06:46:23.504Z,12.83
2019-05-03T06:48:54.306Z,17.50
2019-05-03T06:51:24.845Z,14.23
2019-05-03T06:53:54.762Z,15.30
2019-05-03T06:56:29.010Z,12.30
2019-05-03T06:58:57.029Z,14.50
2019-05-03T07:01:35.625Z,13.07
2019-05-03T07:04:10.277Z,12.80
2019-05-03T07:07:00.503Z,13.00
2019-05-03T07:09:35.421Z,11.33
2019-05-03T07:12:04.927Z,10.80
2019-05-03T07:14:34.932Z,9.40
2019-05-03T07:17:05.561Z,11.13
2019-05-03T07:19:35.487Z,12.33
2019-05-03T07:22:05.243Z,8.13
2019-05-03T07:24:40.400Z,8.17
2019-05-03T07:27:05.878Z,8.67
2019-05-03T07:29:36.612Z,7.03
2019-05-03T07:32:06.247Z,6.50
2019-05-03T07:34:35.719Z,5.27
2019-05-03T07:37:06.030Z,10.13
2019-05-03T07:39:35.741Z,12.87
2019-05-03T07:42:05.546Z,8.47
2019-05-03T07:44:35.193Z,11.40
2019-05-03T07:47:04.959Z,10.60
2019-05-03T07:49:35.676Z,8.87
2019-05-03T07:52:05.963Z,10.17
2019-05-03T07:54:35.758Z,8.13
2019-05-03T07:57:25.669Z,9.83
2019-05-03T07:59:55.767Z,12.73
2019-05-03T08:02:27.473Z,11.93
2019-05-03T08:04:56.508Z,8.33
2019-05-03T08:07:26.004Z,9.67
2019-05-03T08:09:55.745Z,15.77
2019-05-03T08:12:25.238Z,12.97
2019-05-03T08:14:55.306Z,9.67
2019-05-03T08:17:25.556Z,9.07
2019-05-03T08:19:55.580Z,7.30
2019-05-03T08:22:25.699Z,7.60
2019-05-03T08:24:55.646Z,7.27
2019-05-03T08:27:25.349Z,12.33
2019-05-03T08:29:55.804Z,7.73
2019-05-03T08:32:50.400Z,8.67
2019-05-03T08:35:35.672Z,12.67
2019-05-03T08:38:05.216Z,10.57
2019-05-03T08:40:40.285Z,14.13
2019-05-03T08:43:09.733Z,14.13
2019-05-03T08:45:39.520Z,13.20
2019-05-03T08:48:09.032Z,16.10
2019-05-03T08:50:38.886Z,15.70
2019-05-03T08:53:08.332Z,13.23
2019-05-03T08:55:37.843Z,9.50
2019-05-03T08:58:07.353Z,14.13
2019-05-03T09:00:39.480Z,9.90
2019-05-03T09:03:09.033Z,6.77
2019-05-03T09:05:38.503Z,5.53
2019-05-03T09:08:08.072Z,9.50
2019-05-03T09:10:46.357Z,8.43
2019-05-03T09:13:20.213Z,8.87
2019-05-03T09:15:50.582Z,10.30
2019-05-03T09:18:20.072Z,5.77
2019-05-03T09:20:49.513Z,10.73
2019-05-03T09:23:19.178Z,7.07
2019-05-03T09:25:48.664Z,6.50
2019-05-03T09:28:18.121Z,6.73
2019-05-03T09:30:47.680Z,7.45
2019-05-03T09:33:17.115Z,6.47
2019-05-03T09:35:46.596Z,7.33
2019-05-03T09:38:16.266Z,8.03
2019-05-03T09:40:45.731Z,9.83
2019-05-03T09:43:15.295Z,6.80
2019-05-03T09:45:45.770Z,6.90
2019-05-03T09:48:15.441Z,10.30
2019-05-03T09:50:45.262Z,7.22
2019-05-03T09:53:16.983Z,8.48
2019-05-03T09:55:46.448Z,7.40
2019-05-03T09:58:16.044Z,4.20
2019-05-03T10:00:47.011Z,7.60
2019-05-03T10:03:16.503Z,3.40
2019-05-03T10:05:45.992Z,6.22
2019-05-03T10:08:16.303Z,6.05
2019-05-03T10:11:05.482Z,10.10
2019-05-03T10:13:35.600Z,6.28
2019-05-03T10:16:06.232Z,7.85
2019-05-03T10:18:36.336Z,8.70
2019-05-03T10:21:06.034Z,7.45
2019-05-03T10:23:39.597Z,8.58
2019-05-03T10:26:09.373Z,7.40
2019-05-03T10:28:38.942Z,5.55
2019-05-03T10:31:08.453Z,9.25
2019-05-03T10:33:45.036Z,6.90
2019-05-03T10:36:15.446Z,4.72
2019-05-03T10:38:45.980Z,7.42
2019-05-03T10:41:15.729Z,5.08
2019-05-03T10:43:45.442Z,5.40
2019-05-03T10:46:15.880Z,6.75
2019-05-03T10:48:45.691Z,6.53
2019-05-03T10:51:15.814Z,8.30
2019-05-03T10:53:48.261Z,7.03
2019-05-03T10:56:37.381Z,5.75
2019-05-03T10:59:08.058Z,6.78
2019-05-03T11:01:56.477Z,6.80
2019-05-03T11:04:26.776Z,4.95
2019-05-03T11:06:56.228Z,6.35
2019-05-03T11:09:26.113Z,4.87
2019-05-03T11:11:55.793Z,5.22
2019-05-03T11:14:25.588Z,7.70
2019-05-03T11:16:55.425Z,4.00
2019-05-03T11:19:25.419Z,6.95
2019-05-03T11:21:55.004Z,9.45
2019-05-03T11:24:27.159Z,5.80
2019-05-03T11:27:00.034Z,6.15
2019-05-03T11:29:28.626Z,5.55
2019-05-03T11:32:11.880Z,5.20
2019-05-03T11:34:55.458Z,4.72
2019-05-03T11:37:45.347Z,8.30
2019-05-03T11:40:16.627Z,4.85
2019-05-03T11:42:46.846Z,6.92
2019-05-03T11:45:16.760Z,8.28
2019-05-03T11:47:46.266Z,5.92
2019-05-03T11:50:15.976Z,4.78
2019-05-03T11:52:47.230Z,5.25
2019-05-03T11:55:16.650Z,4.17
2019-05-03T11:57:46.106Z,4.50
2019-05-03T12:00:20.610Z,4.90
2019-05-03T12:03:15.588Z,4.10
2019-05-03T12:05:48.329Z,4.70
2019-05-03T12:08:17.917Z,2.95
2019-05-03T12:10:55.425Z,6.12
2019-05-03T12:13:30.455Z,3.35
2019-05-03T12:16:05.429Z,2.87
2019-05-03T12:18:47.973Z,2.62
2019-05-03T12:21:07.933Z,3.92
2019-05-03T12:23:37.011Z,4.67
2019-05-03T12:26:12.778Z,3.17
2019-05-03T12:28:38.062Z,5.35
2019-05-03T12:31:07.533Z,5.60
2019-05-03T12:33:37.071Z,68.50
2019-05-03T12:36:06.660Z,8.03
2019-05-03T12:38:36.100Z,6.40
2019-05-03T12:41:05.862Z,6.33
2019-05-03T12:43:35.389Z,7.83
2019-05-03T12:46:05.211Z,8.75
2019-05-03T12:48:35.490Z,4.12
2019-05-03T12:51:06.563Z,7.03
2019-05-03T12:53:36.733Z,4.25
2019-05-03T12:56:11.164Z,4.65
2019-05-03T12:58:50.384Z,6.22
2019-05-03T13:01:45.452Z,4.60
2019-05-03T13:04:18.860Z,4.58
2019-05-03T13:06:54.948Z,7.85
2019-05-03T13:09:25.187Z,2.42
2019-05-03T13:11:58.975Z,3.52
2019-05-03T13:14:27.313Z,2.92
2019-05-03T13:16:56.779Z,3.65
2019-05-03T13:19:26.372Z,4.53
2019-05-03T13:21:55.880Z,4.37
2019-05-03T13:24:26.040Z,2.65
2019-05-03T13:26:55.587Z,4.97
2019-05-03T13:29:25.709Z,4.05
2019-05-03T13:32:01.661Z,3.15
2019-05-03T13:34:26.488Z,4.62
2019-05-03T13:36:56.005Z,8.30
2019-05-03T13:39:26.520Z,5.08
2019-05-03T13:41:56.401Z,5.33
2019-05-03T13:44:25.849Z,6.12
2019-05-03T13:46:55.350Z,3.87
2019-05-03T13:49:26.403Z,3.92
2019-05-03T13:51:56.252Z,5.33
2019-05-03T13:54:25.705Z,3.17
2019-05-03T13:56:55.319Z,6.33
2019-05-03T13:59:24.831Z,8.98
2019-05-03T14:01:54.681Z,7.00
2019-05-03T14:04:24.257Z,5.62
2019-05-03T14:06:55.242Z,4.90
2019-05-03T14:09:25.191Z,2.27
2019-05-03T14:11:55.333Z,5.92
2019-05-03T14:14:25.844Z,8.45
2019-05-03T14:16:55.493Z,6.90
2019-05-03T14:19:31.523Z,5.08
2019-05-03T14:22:02.614Z,7.12
2019-05-03T14:24:32.058Z,5.58
2019-05-03T14:27:01.538Z,6.58
2019-05-03T14:29:30.971Z,7.83
2019-05-03T14:32:00.421Z,7.80
2019-05-03T14:34:30.312Z,5.53
2019-05-03T14:36:59.768Z,2.05
2019-05-03T14:39:29.208Z,5.58
2019-05-03T14:41:58.711Z,5.83
2019-05-03T14:44:28.172Z,5.12
2019-05-03T14:46:59.227Z,8.35
2019-05-03T14:49:28.820Z,5.75
2019-05-03T14:51:58.462Z,5.00
2019-05-03T14:54:30.192Z,7.70
2019-05-03T14:57:07.518Z,6.33
2019-05-03T15:00:05.471Z,3.87
2019-05-03T15:02:45.982Z,4.25
2019-05-03T15:05:11.364Z,3.95
2019-05-03T15:07:40.936Z,3.02
2019-05-03T15:10:10.618Z,3.80
2019-05-03T15:12:40.055Z,3.62
2019-05-03T15:15:10.105Z,5.58
2019-05-03T15:17:39.574Z,9.83
2019-05-03T15:20:09.125Z,3.25
2019-05-03T15:22:38.673Z,5.30
2019-05-03T15:25:08.349Z,3.02
2019-05-03T15:27:37.827Z,4.28
2019-05-03T15:30:07.815Z,7.20
2019-05-03T15:32:37.296Z,4.10
2019-05-03T15:35:07.591Z,3.92
2019-05-03T15:37:37.033Z,5.40
2019-05-03T15:40:07.455Z,4.35
2019-05-03T15:42:38.729Z,5.87
2019-05-03T15:45:29.958Z,5.05
2019-05-03T15:48:16.956Z,4.28
2019-05-03T15:50:46.498Z,6.33
2019-05-03T15:53:15.939Z,4.60
2019-05-03T15:55:45.537Z,5.55
2019-05-03T15:58:15.394Z,5.70
2019-05-03T16:00:45.001Z,6.03
2019-05-03T16:03:14.581Z,6.53
2019-05-03T16:05:44.696Z,5.58
2019-05-03T16:08:15.369Z,5.12
2019-05-03T16:10:45.727Z,6.72
2019-05-03T16:13:15.533Z,4.67
2019-05-03T16:15:44.976Z,4.03
2019-05-03T16:18:14.832Z,5.15
2019-05-03T16:20:45.045Z,6.25
2019-05-03T16:23:15.452Z,8.40
2019-05-03T16:25:45.527Z,5.08
2019-05-03T16:28:37.032Z,4.60
2019-05-03T16:31:18.442Z,5.40
2019-05-03T16:33:48.028Z,8.40
2019-05-03T16:36:17.576Z,3.95
2019-05-03T16:38:47.062Z,5.60
2019-05-03T16:41:17.978Z,4.45
2019-05-03T16:43:47.819Z,3.70
2019-05-03T16:46:17.230Z,5.42
2019-05-03T16:48:46.669Z,6.78
2019-05-03T16:51:17.225Z,5.65
2019-05-03T16:53:47.017Z,5.40
2019-05-03T16:56:17.153Z,6.93
2019-05-03T16:58:46.768Z,3.13
2019-05-03T17:01:18.165Z,4.70
2019-05-03T17:03:52.219Z,7.95
2019-05-03T17:06:34.719Z,5.25
2019-05-03T17:09:20.238Z,20.32
2019-05-03T17:12:11.090Z,7.80
2019-05-03T17:14:40.568Z,6.20
2019-05-03T17:17:10.017Z,6.77
2019-05-03T17:19:39.466Z,5.10
2019-05-03T17:22:08.923Z,4.93
2019-05-03T17:24:38.399Z,8.80
2019-05-03T17:27:08.297Z,6.07
2019-05-03T17:29:37.722Z,5.30
2019-05-03T17:32:07.145Z,7.37
2019-05-03T17:34:36.597Z,6.80
2019-05-03T17:37:06.054Z,7.12
2019-05-03T17:39:54.704Z,10.47
2019-05-03T17:42:45.097Z,7.47
2019-05-03T17:45:16.413Z,9.77
2019-05-03T17:47:45.890Z,12.80
2019-05-03T17:50:15.363Z,12.13
2019-05-03T17:52:51.995Z,14.90
2019-05-03T17:55:46.365Z,8.70
2019-05-03T17:58:27.370Z,7.53
2019-05-03T18:01:14.700Z,8.67
2019-05-03T18:03:46.773Z,8.67
2019-05-03T18:06:22.996Z,9.97
2019-05-03T18:09:04.785Z,12.97
2019-05-03T18:11:39.959Z,10.20
2019-05-03T18:14:09.416Z,10.05
2019-05-03T18:16:38.885Z,10.73
2019-05-03T18:19:08.331Z,12.70
2019-05-03T18:21:37.769Z,11.77
2019-05-03T18:24:07.209Z,14.70
2019-05-03T18:26:36.682Z,14.33
2019-05-03T18:29:06.139Z,15.40
2019-05-03T18:31:35.643Z,20.50
2019-05-03T18:34:08.854Z,25.63
2019-05-03T18:36:36.253Z,20.20
2019-05-03T18:39:09.494Z,20.53
2019-05-03T18:41:38.937Z,31.90
2019-05-03T18:44:26.816Z,38.07
2019-05-03T18:46:59.154Z,42.87
2019-05-03T18:49:28.645Z,53.30
2019-05-03T18:51:58.238Z,106.43
2019-05-03T18:54:27.732Z,60.10
2019-05-03T18:56:57.233Z,47.87
2019-05-03T18:59:26.982Z,40.23
2019-05-03T19:01:56.413Z,29.23
2019-05-03T19:04:45.194Z,20.47
2019-05-03T19:07:26.838Z,25.03
2019-05-03T19:10:06.383Z,26.97
2019-05-03T19:12:55.233Z,24.10
2019-05-03T19:15:25.095Z,19.67
2019-05-03T19:18:07.838Z,25.17
2019-05-03T19:20:37.308Z,22.67
2019-05-03T19:23:06.764Z,27.40
2019-05-03T19:25:45.897Z,20.97
2019-05-03T19:28:08.089Z,19.80
2019-05-03T19:30:39.245Z,18.93
2019-05-03T19:33:08.725Z,18.07
2019-05-03T19:35:38.198Z,20.10
2019-05-03T19:38:07.760Z,19.80
2019-05-03T19:40:37.544Z,21.23
2019-05-03T19:43:07.010Z,27.30
2019-05-03T19:45:37.474Z,31.57
2019-05-03T19:48:09.588Z,44.40
2019-05-03T19:50:38.225Z,33.17
2019-05-03T19:53:38.830Z,30.10
2019-05-03T19:56:08.361Z,24.00
2019-05-03T19:58:38.117Z,22.30
2019-05-03T20:01:35.552Z,18.97
2019-05-03T20:04:24.510Z,20.23
2019-05-03T20:07:00.801Z,17.27
2019-05-03T20:09:32.077Z,49.10
2019-05-03T20:12:01.598Z,44.73
2019-05-03T20:14:31.136Z,124.37
2019-05-03T20:17:00.598Z,70.77
2019-05-03T20:19:30.378Z,55.63
2019-05-03T20:21:59.929Z,44.43
2019-05-03T20:24:30.859Z,45.57
2019-05-03T20:27:00.391Z,50.00
2019-05-03T20:29:30.026Z,50.93
2019-05-03T20:31:59.481Z,69.87
2019-05-03T20:34:28.945Z,67.57
2019-05-03T20:36:58.751Z,69.17
2019-05-03T20:39:28.265Z,53.90
2019-05-03T20:41:57.713Z,55.60
2019-05-03T20:44:46.166Z,48.83
2019-05-03T20:47:25.731Z,41.00
2019-05-03T20:50:15.303Z,44.50
2019-05-03T20:52:44.539Z,42.00
2019-05-03T20:55:15.544Z,39.27
2019-05-03T20:57:45.303Z,42.80
2019-05-03T21:00:17.565Z,37.93
2019-05-03T21:02:53.428Z,38.07
2019-05-03T21:05:27.832Z,41.60
2019-05-03T21:07:50.315Z,31.67
2019-05-03T21:10:19.841Z,30.67
2019-05-03T21:12:49.352Z,33.10
2019-05-03T21:15:30.015Z,29.70
2019-05-03T21:18:15.108Z,27.17
2019-05-03T21:20:55.487Z,28.80
2019-05-03T21:23:25.759Z,24.80
2019-05-03T21:26:12.969Z,26.17
2019-05-03T21:28:40.332Z,24.13
2019-05-03T21:31:09.811Z,21.73
2019-05-03T21:33:39.281Z,22.80
2019-05-03T21:36:08.799Z,22.50
2019-05-03T21:38:40.851Z,17.70
2019-05-03T21:41:09.397Z,21.43
2019-05-03T21:43:38.892Z,21.93
2019-05-03T21:46:20.054Z,24.30
2019-05-03T21:48:57.705Z,18.60
2019-05-03T21:51:27.193Z,20.23
2019-05-03T21:53:56.977Z,21.80
2019-05-03T21:56:26.508Z,16.57
2019-05-03T21:58:56.058Z,15.70
2019-05-03T22:01:25.861Z,20.13
2019-05-03T22:03:55.626Z,17.30
2019-05-03T22:06:25.114Z,14.83
2019-05-03T22:08:55.419Z,20.67
2019-05-03T22:11:25.263Z,17.57
2019-05-03T22:13:57.144Z,16.60
2019-05-03T22:16:45.011Z,18.90
2019-05-03T22:19:17.070Z,21.43
2019-05-03T22:22:16.731Z,18.97
2019-05-03T22:24:50.236Z,16.83
2019-05-03T22:27:21.324Z,19.27
2019-05-03T22:29:50.826Z,19.93
2019-05-03T22:32:20.616Z,19.20
2019-05-03T22:34:50.160Z,19.80
2019-05-03T22:37:19.615Z,17.33
2019-05-03T22:39:49.156Z,18.20
2019-05-03T22:42:18.669Z,22.67
2019-05-03T22:44:48.202Z,18.23
2019-05-03T22:47:17.820Z,21.70
2019-05-03T22:49:47.336Z,18.13
2019-05-03T22:52:16.834Z,18.90
2019-05-03T22:54:46.449Z,19.77
2019-05-03T22:57:15.964Z,18.03
2019-05-03T22:59:45.448Z,20.17
2019-05-03T23:02:16.834Z,18.47
2019-05-03T23:04:46.034Z,16.60
2019-05-03T23:07:15.497Z,18.20
2019-05-03T23:09:45.010Z,18.23
2019-05-03T23:12:14.492Z,19.57
2019-05-03T23:14:44.687Z,19.67
2019-05-03T23:17:14.973Z,16.53
2019-05-03T23:19:51.272Z,23.00
2019-05-03T23:22:24.660Z,17.27
2019-05-03T23:24:54.843Z,17.33
2019-05-03T23:27:25.017Z,14.87
2019-05-03T23:29:54.659Z,15.30
2019-05-03T23:32:24.592Z,11.63
2019-05-03T23:34:54.575Z,16.37
2019-05-03T23:37:24.071Z,11.93
2019-05-03T23:39:55.175Z,17.40
2019-05-03T23:42:24.743Z,12.97
2019-05-03T23:44:55.299Z,16.37
2019-05-03T23:47:41.674Z,14.77
2019-05-03T23:50:14.837Z,15.97
2019-05-03T23:52:45.196Z,14.33
2019-05-03T23:55:44.905Z,15.27
2019-05-03T23:58:14.493Z,15.60
